createdAt,value
2023-05-07T00:03:22.495Z,24.50
2023-05-07T00:13:33.125Z,24.50
2023-05-07T00:23:46.910Z,24.50
2023-05-07T00:34:08.030Z,24.50
2023-05-07T00:44:21.217Z,24.50
2023-05-07T00:54:30.812Z,24.50
2023-05-07T01:05:17.084Z,24.50
2023-05-07T01:25:58.493Z,24.60
2023-05-07T01:36:09.265Z,24.60
2023-05-07T01:46:24.743Z,24.60
2023-05-07T01:56:32.077Z,24.60
2023-05-07T02:06:43.367Z,24.60
2023-05-07T02:16:53.006Z,24.60
2023-05-07T02:27:02.564Z,24.50
2023-05-07T02:37:10.393Z,24.50
2023-05-07T02:47:20.207Z,24.50
2023-05-07T02:57:27.377Z,24.50
2023-05-07T03:07:38.210Z,24.50
2023-05-07T03:17:46.008Z,24.50
2023-05-07T03:27:55.082Z,24.50
2023-05-07T03:38:05.293Z,24.50
2023-05-07T03:48:16.806Z,24.50
2023-05-07T03:58:24.037Z,24.60
2023-05-07T04:08:34.122Z,24.60
2023-05-07T04:18:41.396Z,24.50
2023-05-07T04:28:51.488Z,24.60
2023-05-07T04:38:58.597Z,24.80
2023-05-07T04:49:07.534Z,25.00
2023-05-07T04:59:50.831Z,25.00
2023-05-07T05:09:59.559Z,25.10
2023-05-07T05:20:07.635Z,25.20
2023-05-07T05:30:17.867Z,25.30
2023-05-07T05:40:31.730Z,25.40
2023-05-07T05:50:40.849Z,25.50
2023-05-07T06:00:53.242Z,25.60
2023-05-07T06:11:29.638Z,25.70
2023-05-07T06:21:38.210Z,25.70
2023-05-07T06:31:52.523Z,25.80
2023-05-07T06:42:06.462Z,25.80
2023-05-07T06:52:24.216Z,25.70
2023-05-07T07:02:36.803Z,25.70
2023-05-07T07:12:48.552Z,25.60
2023-05-07T07:22:58.211Z,25.60
2023-05-07T07:33:10.711Z,25.70
2023-05-07T07:43:24.889Z,25.70
2023-05-07T07:53:39.589Z,25.70
2023-05-07T08:03:48.955Z,25.70
2023-05-07T08:14:03.512Z,25.70
2023-05-07T08:24:18.551Z,25.70
2023-05-07T08:34:34.083Z,25.80
2023-05-07T08:44:45.377Z,25.80
2023-05-07T08:55:04.116Z,25.80
2023-05-07T09:05:16.706Z,25.90
2023-05-07T09:27:49.957Z,25.90
2023-05-07T09:38:03.896Z,25.90
2023-05-07T09:48:30.205Z,26.00
2023-05-07T09:58:45.650Z,26.00
2023-05-07T10:09:01.361Z,26.00
2023-05-07T10:19:18.078Z,26.00
2023-05-07T10:29:45.023Z,26.00
2023-05-07T10:39:55.719Z,26.00
2023-05-07T10:50:33.848Z,26.00
2023-05-07T11:00:50.002Z,26.10
2023-05-07T11:11:13.079Z,26.10
2023-05-07T11:21:45.890Z,26.10
2023-05-07T11:32:14.751Z,26.10
2023-05-07T11:42:33.660Z,26.10
2023-05-07T11:52:55.970Z,26.10
2023-05-07T12:03:08.774Z,26.20
2023-05-07T12:13:28.337Z,26.20
2023-05-07T12:23:40.248Z,26.20
2023-05-07T12:33:54.719Z,26.20
2023-05-07T12:44:07.068Z,26.20
2023-05-07T12:54:31.143Z,26.20
2023-05-07T13:04:42.462Z,26.30
2023-05-07T13:14:59.608Z,26.30
2023-05-07T13:25:11.234Z,26.30
2023-05-07T13:35:23.223Z,26.30
2023-05-07T13:45:46.610Z,26.30
2023-05-07T13:56:12.887Z,26.30
2023-05-07T14:06:25.185Z,26.40
2023-05-07T14:16:37.940Z,26.40
2023-05-07T14:26:49.991Z,26.40
2023-05-07T14:37:07.193Z,26.40
2023-05-07T14:47:20.220Z,26.40
2023-05-07T14:57:40.464Z,26.40
2023-05-07T15:07:49.601Z,26.50
2023-05-07T15:18:02.069Z,26.50
2023-05-07T15:28:12.091Z,26.50
2023-05-07T15:38:25.192Z,26.50
2023-05-07T15:48:36.069Z,26.50
2023-05-07T15:58:49.017Z,26.60
2023-05-07T16:19:13.126Z,26.40
2023-05-07T16:29:21.659Z,26.40
2023-05-07T16:39:36.132Z,26.30
2023-05-07T16:50:01.821Z,26.40
2023-05-07T17:00:13.914Z,26.50
2023-05-07T17:10:25.525Z,26.40
2023-05-07T17:20:34.223Z,26.50
2023-05-07T17:30:46.950Z,26.40
2023-05-07T17:41:01.601Z,26.40
2023-05-07T17:51:18.042Z,26.40
2023-05-07T18:01:30.390Z,26.40
2023-05-07T18:11:39.806Z,26.40
2023-05-07T18:21:51.303Z,26.40
2023-05-07T18:31:58.375Z,26.40
2023-05-07T18:42:09.550Z,26.40
2023-05-07T18:52:22.006Z,26.30
2023-05-07T19:02:30.636Z,26.30
2023-05-07T19:12:37.666Z,26.20
2023-05-07T19:22:46.316Z,26.20
2023-05-07T19:32:53.400Z,26.20
2023-05-07T19:43:02.458Z,26.30
2023-05-07T19:53:09.417Z,26.30
2023-05-07T20:03:19.561Z,26.40
2023-05-07T20:13:27.750Z,26.50
2023-05-07T20:23:36.549Z,26.40
2023-05-07T20:33:43.648Z,26.40
2023-05-07T20:43:52.903Z,26.30
2023-05-07T20:53:59.875Z,26.30
2023-05-07T21:04:08.852Z,26.20
2023-05-07T21:14:15.857Z,26.20
2023-05-07T21:24:24.596Z,26.20
2023-05-07T21:34:31.535Z,26.20
2023-05-07T21:44:40.815Z,26.20
2023-05-07T21:54:47.971Z,26.30
2023-05-07T22:04:56.653Z,26.30
2023-05-07T22:15:03.713Z,26.30
2023-05-07T22:25:13.923Z,26.30
2023-05-07T22:35:21.372Z,26.30
2023-05-07T22:45:30.423Z,26.30
2023-05-07T22:55:37.752Z,26.30
2023-05-07T23:05:46.367Z,26.20
2023-05-07T23:15:53.349Z,26.20
2023-05-07T23:26:01.963Z,26.20
2023-05-07T23:36:10.824Z,26.00
2023-05-07T23:46:20.067Z,25.70
2023-05-07T23:56:26.919Z,25.50
